Latest Weather Observations for Ballarat

IDV60801

Issued at 4:35 pm EST Wednesday 23 April 2014 (issued every 30 minutes, with the page automatically refreshed every 10 minutes)

About weather observations | Map of weather stations | Latest weather observations for VIC | Other Formats
Station Details ID: 089002 Name: BALLARAT AERODROME Lat: -37.51 Lon: 143.79 Height: 435.2 m
Data from the previous 72 hours. | See also: Recent months at Ballarat
Date/Time
EST
Temp
°C
App
Temp
°C
Dew
Point
Rel
Hum
%
Delta-T
°C
Wind Press
QNH
hPa
Press
MSL
hPa
Rain
since 9 am
mm
Dir
 
Spd
km/h
Gust
km/h
Spd
kts
Gust
kts
23/04:30pm 15.9 10.7 2.3 40 6.2 NW 19 24 10 13 1013.8 - 0.0
23/04:00pm 16.2 11.0 2.2 39 6.4 WNW 19 22 10 12 1013.9 - 0.0
23/03:30pm 15.7 11.6 4.1 46 5.5 WNW 15 20 8 11 1014.0 - 0.0
23/03:00pm 15.2 11.4 4.0 47 5.3 NW 13 17 7 9 1014.1 1013.8 0.0
23/02:30pm 14.8 10.5 3.3 46 5.3 NW 15 22 8 12 1014.3 - 0.0
23/02:00pm 15.4 11.1 3.2 44 5.7 NW 15 20 8 11 1014.3 - 0.0
23/01:30pm 14.0 10.4 2.9 47 5.1 W 11 17 6 9 1014.9 - 0.0
23/01:00pm 13.7 9.7 2.6 47 5.0 W 13 17 7 9 1015.4 - 0.0
23/12:30pm 14.0 10.1 3.5 49 4.9 WNW 13 20 7 11 1016.0 - 0.0
23/12:00pm 13.6 10.1 5.3 57 4.0 W 13 19 7 10 1016.5 1016.3 0.0
23/11:30am 13.1 9.6 5.3 59 3.7 WNW 13 19 7 10 1016.8 - 0.0
23/11:00am 12.8 10.1 5.5 61 3.5 WNW 9 13 5 7 1017.0 - 0.0
23/10:30am 12.1 10.1 7.2 72 2.4 W 7 13 4 7 1017.2 - 0.0
23/10:00am 11.1 9.6 9.2 88 1.0 W 7 9 4 5 1017.3 - 0.0
23/09:30am 9.4 8.9 9.3 99 0.1 WNW 2 7 1 4 1017.4 - 0.0
23/09:00am 7.9 7.4 7.9 100 0.0 CALM 0 6 0 3 1017.5 1017.2 1.6
23/08:30am 6.0 3.9 6.0 100 0.0 W 6 7 3 4 1017.5 - 1.6
23/08:28am 5.9 3.8 5.9 100 0.0 W 6 7 3 4 1017.5 - 1.6
23/08:09am 4.9 3.7 4.8 99 0.0 CALM 0 6 0 3 1017.3 - 1.6
23/08:00am 4.1 2.8 4.0 99 0.0 CALM 0 0 0 0 1017.1 - 1.6
23/07:59am 4.2 2.9 4.1 99 0.0 CALM 0 2 0 1 1017.0 - 1.6
23/07:49am 3.0 0.3 2.9 99 0.0 E 6 7 3 4 1016.8 - 1.6
23/07:30am 2.1 -0.3 2.0 99 0.0 SE 4 7 2 4 1016.7 - 1.6
23/07:11am 1.2 -0.6 1.1 99 0.0 CALM 0 0 0 0 1016.6 - 1.6
23/07:08am 1.2 -0.6 1.1 99 0.0 CALM 0 4 0 2 1016.6 - 1.6
23/07:00am 1.6 -0.9 1.5 99 0.0 E 4 7 2 4 1016.5 - 1.6
23/06:51am 1.9 -0.9 1.8 99 0.0 SE 6 6 3 3 1016.5 - 1.6
23/06:30am 2.3 0.7 2.2 99 0.0 CALM 0 0 0 0 1016.4 - 1.6
23/06:00am 2.9 1.0 2.8 99 0.0 S 2 6 1 3 1016.4 1016.2 1.6
23/05:43am 3.5 0.7 3.4 99 0.0 SSW 7 9 4 5 1016.3 - 1.6
23/05:30am 3.4 1.6 3.3 99 0.0 SE 2 6 1 3 1016.4 - 1.6
23/05:27am 3.3 1.1 3.2 99 0.0 SE 4 7 2 4 1016.4 - 1.6
23/05:00am 4.2 1.8 4.1 99 0.0 E 6 7 3 4 1016.5 - 1.6
23/04:51am 4.2 1.8 4.1 99 0.0 ESE 6 7 3 4 1016.6 - 1.6
23/04:30am 4.4 1.8 4.3 99 0.0 S 7 7 4 4 1016.2 - 1.6
23/04:00am 5.2 2.0 5.1 99 0.0 S 11 13 6 7 1016.2 - 1.6
23/03:38am 5.3 2.1 5.2 99 0.0 S 11 13 6 7 1016.1 - 1.6
23/03:30am 5.2 2.4 5.1 99 0.0 S 9 11 5 6 1016.1 - 1.6
23/03:19am 4.8 1.9 4.7 99 0.0 S 9 11 5 6 1016.1 - 1.6
23/03:00am 5.5 2.4 5.4 99 0.0 S 11 13 6 7 1016.3 1016.0 1.6
23/02:56am 5.8 2.7 5.7 99 0.0 S 11 15 6 8 1016.3 - 1.6
23/02:47am 6.2 2.8 6.1 99 0.0 S 13 15 7 8 1016.4 - 1.6
23/02:30am 6.2 2.8 6.1 99 0.0 S 13 15 7 8 1016.6 - 1.6
23/02:00am 6.7 3.4 6.6 99 0.0 S 13 15 7 8 1016.7 - 1.6
23/01:30am 7.0 4.6 6.9 99 0.0 S 9 13 5 7 1017.0 - 1.6
23/01:00am 7.6 5.3 7.3 98 0.1 SSE 9 9 5 5 1017.3 - 1.6
23/12:30am 7.6 5.3 7.3 98 0.1 SSE 9 11 5 6 1017.5 - 1.6
23/12:00am 7.7 5.0 7.4 98 0.1 SE 11 13 6 7 1017.6 1017.3 1.6
 
Date/Time
EST
Temp
°C
App
Temp
°C
Dew
Point
Rel
Hum
%
Delta-T
°C
Wind Press
QNH
hPa
Press
MSL
hPa
Rain
since 9 am
mm
Dir
 
Spd
km/h
Gust
km/h
Spd
kts
Gust
kts
22/11:30pm 7.7 5.0 7.4 98 0.1 SSE 11 15 6 8 1017.7 - 1.6
22/11:00pm 7.9 5.3 7.6 98 0.1 SSE 11 13 6 7 1017.9 - 1.6
22/10:30pm 8.6 5.7 8.3 98 0.1 S 13 17 7 9 1018.1 - 1.6
22/10:00pm 9.0 6.6 8.5 97 0.2 S 11 15 6 8 1018.1 - 1.6
22/09:30pm 10.0 7.8 9.4 96 0.3 SSE 11 15 6 8 1018.0 - 1.6
22/09:00pm 9.9 7.6 9.1 95 0.4 S 11 13 6 7 1017.8 1017.5 1.6
22/08:30pm 10.5 8.1 8.8 89 0.9 SSE 11 15 6 8 1017.7 - 1.6
22/08:00pm 11.3 9.2 9.6 89 0.9 S 11 15 6 8 1017.7 - 1.6
22/07:30pm 11.7 8.7 9.4 86 1.2 S 15 19 8 10 1017.5 - 1.6
22/07:00pm 11.9 8.3 9.8 87 1.1 S 19 24 10 13 1017.2 - 1.6
22/06:58pm 11.9 8.3 9.8 87 1.1 S 19 24 10 13 1017.2 - 1.6
22/06:36pm 12.2 10.1 11.3 94 0.5 S 13 19 7 10 1016.8 - 1.6
22/06:30pm 12.2 9.3 11.1 93 0.6 S 17 24 9 13 1016.7 - 1.6
22/06:21pm 12.2 8.9 10.9 92 0.7 S 19 24 10 13 1016.5 - 1.6
22/06:07pm 12.6 9.4 11.3 92 0.7 S 19 24 10 13 1016.3 - 1.6
22/06:00pm 12.7 9.6 11.6 93 0.6 S 19 24 10 13 1016.3 1016.0 1.6
22/05:30pm 13.5 13.7 13.2 98 0.2 SE 4 13 2 7 1016.0 - 1.6
22/05:00pm 13.6 13.4 13.0 96 0.3 E 6 6 3 3 1015.7 - 1.6
22/04:30pm 13.5 13.4 13.2 98 0.2 ESE 6 7 3 4 1015.4 - 1.4
22/04:00pm 13.5 12.8 13.3 99 0.1 ENE 9 11 5 6 1015.4 - 1.4
22/03:31pm 13.0 12.5 12.8 99 0.1 ENE 7 9 4 5 1015.4 - 1.4
22/03:30pm 13.1 12.7 12.9 99 0.1 ENE 7 9 4 5 1015.4 - 1.4
22/03:26pm 13.0 12.5 12.8 99 0.1 ENE 7 9 4 5 1015.4 - 1.4
22/03:00pm 13.0 13.9 12.8 99 0.1 CALM 0 7 0 4 1015.4 1015.1 1.4
22/02:30pm 13.1 12.8 12.8 98 0.2 WSW 6 7 3 4 1015.2 - 0.8
22/02:10pm 13.2 12.2 12.3 94 0.5 W 9 11 5 6 1015.0 - 0.6
22/02:00pm 13.4 12.6 11.8 90 0.9 WNW 7 9 4 5 1014.9 - 0.6
22/01:30pm 13.3 12.0 11.4 88 1.0 N 9 13 5 7 1015.0 - 0.6
22/01:00pm 13.6 11.5 11.1 85 1.4 N 13 17 7 9 1015.1 - 0.6
22/12:30pm 13.5 11.0 11.0 85 1.3 N 15 19 8 10 1015.3 - 0.6
22/12:00pm 13.1 10.7 11.3 89 1.0 N 15 20 8 11 1015.6 1015.3 0.6
22/11:30am 13.0 9.6 11.4 90 0.9 N 20 26 11 14 1015.7 - 0.6
22/11:00am 13.0 10.2 11.4 90 0.9 N 17 24 9 13 1015.7 - 0.6
22/10:30am 12.0 9.3 11.7 98 0.2 N 17 22 9 12 1015.8 - 0.6
22/10:00am 11.5 8.1 11.2 98 0.2 N 20 26 11 14 1015.8 - 0.4
22/09:30am 11.2 7.9 10.9 98 0.2 N 19 24 10 13 1015.7 - 0.2
22/09:01am 10.7 7.3 10.5 99 0.1 NNE 19 22 10 12 1015.9 - 0.0
22/09:00am 10.7 7.3 10.5 99 0.1 NNE 19 22 10 12 1015.9 1015.6 12.6
22/08:49am 10.6 6.9 10.3 98 0.2 N 20 30 11 16 1015.7 - 12.4
22/08:30am 10.7 6.3 10.4 98 0.2 NNE 24 32 13 17 1015.2 - 10.8
22/08:00am 10.5 6.4 10.2 98 0.2 NNE 22 32 12 17 1015.2 - 9.2
22/07:58am 10.4 6.7 10.1 98 0.2 NNE 20 28 11 15 1015.1 - 9.2
22/07:35am 10.3 7.9 10.0 98 0.2 N 13 17 7 9 1015.8 - 7.0
22/07:30am 10.5 7.4 10.2 98 0.2 NNE 17 28 9 15 1015.4 - 6.0
22/07:22am 10.4 5.9 10.1 98 0.2 NNE 24 32 13 17 1014.6 - 5.8
22/07:02am 10.4 6.6 9.8 96 0.3 N 20 28 11 15 1015.1 - 4.2
22/07:00am 10.5 6.7 9.7 95 0.4 N 20 26 11 14 1015.2 - 3.6
22/06:30am 10.6 4.9 8.5 87 1.1 N 28 37 15 20 1014.8 - 2.0
22/06:00am 10.7 5.6 9.1 90 0.8 NNE 26 35 14 19 1014.5 1014.2 1.8
22/05:30am 10.0 4.6 7.9 87 1.0 N 26 33 14 18 1015.2 - 1.0
22/05:00am 10.5 4.9 7.2 80 1.6 N 26 33 14 18 1015.5 - 0.2
22/04:30am 11.0 5.7 6.6 74 2.1 N 24 32 13 17 1014.3 - 0.0
22/04:00am 10.8 5.1 6.7 76 2.0 N 26 39 14 21 1014.7 - 0.0
22/03:30am 11.9 4.7 5.8 66 2.9 N 33 43 18 23 1013.4 - 0.0
22/03:00am 11.8 5.5 5.7 66 2.9 N 28 41 15 22 1013.3 1013.0 0.0
22/02:30am 12.0 5.0 5.9 66 2.9 N 32 46 17 25 1013.6 - 0.0
22/02:00am 11.9 4.0 6.2 68 2.8 N 37 48 20 26 1013.4 - 0.0
22/01:30am 12.3 4.9 5.0 61 3.4 NNE 33 44 18 24 1013.6 - 0.0
22/01:00am 12.6 4.1 5.1 60 3.6 NNE 39 54 21 29 1013.5 - 0.0
22/12:30am 12.5 4.3 5.0 60 3.5 NNE 37 48 20 26 1013.6 - 0.0
22/12:00am 12.6 4.4 4.8 59 3.7 NNE 37 50 20 27 1013.8 1013.5 0.0
 
Date/Time
EST
Temp
°C
App
Temp
°C
Dew
Point
Rel
Hum
%
Delta-T
°C
Wind Press
QNH
hPa
Press
MSL
hPa
Rain
since 9 am
mm
Dir
 
Spd
km/h
Gust
km/h
Spd
kts
Gust
kts
21/11:30pm 12.7 4.9 4.9 59 3.7 NNE 35 50 19 27 1013.9 - 0.0
21/11:00pm 12.8 4.2 4.8 58 3.8 NNE 39 48 21 26 1014.2 - 0.0
21/10:30pm 13.0 4.8 4.9 58 3.8 NNE 37 50 20 27 1014.7 - 0.0
21/10:00pm 13.2 5.1 5.1 58 3.9 NNE 37 48 20 26 1014.8 - 0.0
21/09:30pm 13.4 4.4 4.8 56 4.1 NNE 41 52 22 28 1014.8 - 0.0
21/09:00pm 13.7 5.1 4.6 54 4.3 NNE 39 59 21 32 1014.8 1014.5 0.0
21/08:59pm 13.9 4.9 4.8 54 4.3 NNE 41 59 22 32 1014.7 - 0.0
21/08:30pm 13.8 4.5 4.9 55 4.2 NNE 43 57 23 31 1014.7 - 0.0
21/08:00pm 14.0 4.6 4.6 53 4.5 NNE 43 61 23 33 1014.6 - 0.0
21/07:35pm 14.3 5.7 4.9 53 4.5 N 39 57 21 31 1014.9 - 0.0
21/07:30pm 14.1 6.3 4.9 54 4.4 N 35 50 19 27 1015.0 - 0.0
21/07:00pm 14.4 6.2 5.0 53 4.5 N 37 50 20 27 1014.8 - 0.0
21/06:30pm 14.8 5.5 5.1 52 4.7 N 43 54 23 29 1014.9 - 0.0
21/06:00pm 15.2 6.3 5.1 51 4.9 N 41 56 22 30 1014.6 1014.3 0.0
21/05:30pm 15.7 6.5 5.3 50 5.1 N 43 54 23 29 1014.6 - 0.0
21/05:00pm 16.1 6.7 5.4 49 5.2 N 44 57 24 31 1014.3 - 0.0
21/04:30pm 16.3 6.9 4.7 46 5.6 N 43 59 23 32 1014.2 - 0.0
21/04:03pm 17.1 8.2 5.1 45 5.9 N 41 59 22 32 1014.6 - 0.0
21/04:00pm 17.2 8.3 5.2 45 5.9 N 41 56 22 30 1014.6 - 0.0
21/03:34pm 16.8 8.2 4.8 45 5.8 N 39 57 21 31 1014.7 - 0.0
21/03:30pm 16.7 7.3 4.7 45 5.8 N 43 57 23 31 1014.6 - 0.0
21/03:20pm 16.8 7.5 5.1 46 5.7 N 43 61 23 33 1014.3 - 0.0
21/03:00pm 16.9 7.0 4.9 45 5.8 N 46 57 25 31 1014.9 1014.6 0.0
21/02:30pm 16.8 8.3 5.1 46 5.7 N 39 50 21 27 1015.7 - 0.0
21/02:00pm 17.4 8.6 5.4 45 5.9 N 41 56 22 30 1016.1 - 0.0
21/01:30pm 15.6 6.7 5.2 50 5.0 N 41 57 22 31 1016.1 - 0.0
21/01:01pm 16.2 6.7 4.9 47 5.5 N 44 63 24 34 1016.1 - 0.0
21/01:00pm 16.1 6.2 4.8 47 5.5 N 46 63 25 34 1016.1 - 0.0
21/12:44pm 17.0 7.8 5.3 46 5.8 N 43 61 23 33 1016.2 - 0.0
21/12:30pm 15.9 6.3 4.6 47 5.4 N 44 56 24 30 1016.4 - 0.0
21/12:00pm 15.4 6.1 4.8 49 5.1 N 43 54 23 29 1017.3 1017.0 0.0
21/11:30am 14.6 5.0 4.6 51 4.8 N 44 56 24 30 1017.3 - 0.0
21/11:00am 13.9 4.9 4.5 53 4.4 N 41 50 22 27 1017.7 - 0.0
21/10:35am 13.6 5.2 3.9 52 4.5 N 37 57 20 31 1017.8 - 0.0
21/10:30am 13.8 5.9 4.4 53 4.4 N 35 46 19 25 1018.0 - 0.0
21/10:00am 13.2 6.0 4.9 57 3.9 N 32 41 17 22 1018.4 - 0.0
21/09:30am 11.4 3.9 4.2 61 3.3 N 33 39 18 21 1019.0 - 0.0
21/09:00am 11.4 5.2 4.2 61 3.3 N 26 35 14 19 1019.1 1018.9 0.0
21/08:30am 10.2 4.7 3.9 65 2.8 N 22 30 12 16 1019.2 - 0.0
21/08:00am 9.0 3.1 3.8 70 2.3 N 24 32 13 17 1019.0 - 0.0
21/07:30am 8.9 2.6 3.7 70 2.3 N 26 35 14 19 1018.4 - 0.0
21/07:00am 9.0 3.0 3.6 69 2.4 N 24 35 13 19 1018.2 - 0.0
21/06:30am 8.9 2.2 3.7 70 2.3 N 28 35 15 19 1018.6 - 0.0
21/06:00am 9.2 2.9 3.6 68 2.5 N 26 33 14 18 1018.3 1018.0 0.0
21/05:30am 9.4 3.1 3.6 67 2.6 N 26 35 14 19 1018.1 - 0.0
21/05:00am 9.4 2.7 3.6 67 2.6 N 28 33 15 18 1017.9 - 0.0
21/04:30am 9.1 2.4 3.5 68 2.5 NNE 28 35 15 19 1017.5 - 0.0
21/04:00am 8.6 3.0 3.6 71 2.2 N 22 28 12 15 1017.7 - 0.0
21/03:30am 8.6 3.4 3.6 71 2.2 NNE 20 26 11 14 1017.8 - 0.0
21/03:00am 8.9 2.9 3.5 69 2.4 NNE 24 32 13 17 1017.9 1017.6 0.0
21/02:30am 9.1 3.5 3.5 68 2.5 N 22 32 12 17 1018.1 - 0.0
21/02:00am 8.3 3.2 3.2 70 2.2 NNE 19 22 10 12 1018.3 - 0.0
21/01:30am 8.6 3.4 3.4 70 2.3 NNE 20 24 11 13 1018.3 - 0.0
21/01:00am 9.1 3.9 3.3 67 2.6 NNE 20 26 11 14 1018.3 - 0.0
21/12:30am 9.3 4.3 3.5 67 2.6 NNE 19 26 10 14 1018.5 - 0.0
21/12:00am 9.6 4.4 3.8 67 2.6 NNE 20 26 11 14 1018.4 1018.2 0.0
 
Date/Time
EST
Temp
°C
App
Temp
°C
Dew
Point
Rel
Hum
%
Delta-T
°C
Wind Press
QNH
hPa
Press
MSL
hPa
Rain
since 9 am
mm
Dir
 
Spd
km/h
Gust
km/h
Spd
kts
Gust
kts
20/11:30pm 10.0 5.1 4.0 66 2.7 N 19 24 10 13 1018.5 - 0.0
20/11:00pm 10.4 5.5 3.9 64 2.9 NNE 19 24 10 13 1018.4 - 0.0
20/10:30pm 11.6 6.5 4.3 61 3.4 N 20 24 11 13 1018.6 - 0.0
20/10:00pm 11.9 6.9 4.4 60 3.5 N 20 26 11 14 1018.7 - 0.0
20/09:30pm 12.2 7.7 4.4 59 3.6 N 17 20 9 11 1018.5 - 0.0
20/09:00pm 12.6 8.1 4.3 57 3.9 N 17 22 9 12 1018.3 1018.0 0.0
20/08:30pm 12.6 8.2 4.6 58 3.7 NNE 17 20 9 11 1018.2 - 0.0
20/08:00pm 12.6 8.2 4.8 59 3.7 N 17 20 9 11 1018.2 - 0.0
20/07:30pm 12.8 9.3 5.5 61 3.5 N 13 17 7 9 1018.1 - 0.0
20/07:00pm 12.8 9.8 5.9 63 3.3 N 11 13 6 7 1017.9 - 0.0
20/06:30pm 12.9 9.9 5.8 62 3.4 N 11 13 6 7 1017.7 - 0.0
20/06:00pm 13.3 9.9 5.7 60 3.7 N 13 15 7 8 1017.4 1017.1 0.0
20/05:30pm 14.0 10.9 5.4 56 4.1 NNW 11 13 6 7 1017.3 - 0.0
20/05:00pm 14.5 10.9 5.0 53 4.6 NW 13 15 7 8 1017.0 - 0.0

Other Formats:

Comma delimited format used in spreadsheet applications
http://www.bom.gov.au/fwo/IDV60801/IDV60801.94852.axf

JavaScript Object Notation format (JSON) in row-major order
http://www.bom.gov.au/fwo/IDV60801/IDV60801.94852.json